Time,TemperatureF,DewpointF,PressureIn,WindDirection,WindDirectionDegrees,WindSpeedMPH,WindSpeedGustMPH,Humidity,HourlyPrecipIn,Conditions,Clouds,dailyrainin,SoftwareType,DateUTC
2013-11-12 00:05:00,46.8,39.3,30.01,South,180,4.2,-999.0,75,-99.99,,,0.00,Acu-Link.com,2013-11-12 05:05:00,
2013-11-12 00:21:00,46.4,38.9,30.00,ESE,112,3.2,-999.0,75,-99.99,,,0.00,Acu-Link.com,2013-11-12 05:21:00,
2013-11-12 00:36:00,46.6,39.1,29.99,South,180,3.7,-999.0,75,-99.99,,,0.00,Acu-Link.com,2013-11-12 05:36:00,
2013-11-12 00:51:00,46.9,39.4,29.99,SW,225,3.2,-999.0,75,-99.99,,,0.00,Acu-Link.com,2013-11-12 05:51:00,
2013-11-12 01:06:00,47.3,39.4,29.99,West,270,2.7,-999.0,74,-99.99,,,0.00,Acu-Link.com,2013-11-12 06:06:00,
2013-11-12 01:21:00,47.8,39.2,29.98,NE,45,2.7,-999.0,72,-99.99,,,0.00,Acu-Link.com,2013-11-12 06:21:00,
2013-11-12 01:37:00,48.4,39.1,29.97,NE,45,2.2,-999.0,70,-99.99,,,0.00,Acu-Link.com,2013-11-12 06:37:00,
2013-11-12 01:52:00,48.4,39.1,29.96,SSW,202,2.2,-999.0,70,-99.99,,,0.00,Acu-Link.com,2013-11-12 06:52:00,
2013-11-12 02:07:00,48.6,38.9,29.96,South,180,4.7,-999.0,69,-99.99,,,0.00,Acu-Link.com,2013-11-12 07:07:00,
2013-11-12 02:22:00,48.6,38.9,29.96,West,270,2.7,-999.0,69,-99.99,,,0.00,Acu-Link.com,2013-11-12 07:22:00,
2013-11-12 02:38:00,48.6,38.5,29.95,NE,45,3.2,-999.0,68,-99.99,,,0.00,Acu-Link.com,2013-11-12 07:38:00,
2013-11-12 02:53:00,48.6,38.5,29.95,SE,135,2.7,-999.0,68,-99.99,,,0.00,Acu-Link.com,2013-11-12 07:53:00,
2013-11-12 03:08:00,48.6,37.8,29.94,West,270,0.0,-999.0,66,-99.99,,,0.00,Acu-Link.com,2013-11-12 08:08:00,
2013-11-12 03:23:00,48.6,37.8,29.94,NW,315,2.7,-999.0,66,-99.99,,,0.00,Acu-Link.com,2013-11-12 08:23:00,
2013-11-12 03:39:00,48.6,37.4,29.95,North,0,0.0,-999.0,65,-99.99,,,0.00,Acu-Link.com,2013-11-12 08:39:00,
2013-11-12 03:54:00,48.4,37.6,29.95,SW,225,0.0,-999.0,66,-99.99,,,0.00,Acu-Link.com,2013-11-12 08:54:00,
2013-11-12 04:09:00,48.0,37.2,29.94,South,180,0.0,-999.0,66,-99.99,,,0.00,Acu-Link.com,2013-11-12 09:09:00,
2013-11-12 04:24:00,47.5,37.1,29.94,West,270,0.0,-999.0,67,-99.99,,,0.00,Acu-Link.com,2013-11-12 09:24:00,
2013-11-12 04:39:00,46.9,37.6,29.94,SSE,157,0.0,-999.0,70,-99.99,,,0.00,Acu-Link.com,2013-11-12 09:39:00,
2013-11-12 04:55:00,46.4,37.2,29.94,WNW,292,0.0,-999.0,70,-99.99,,,0.00,Acu-Link.com,2013-11-12 09:55:00,
2013-11-12 05:10:00,45.7,36.8,29.94,NW,315,0.0,-999.0,71,-99.99,,,0.00,Acu-Link.com,2013-11-12 10:10:00,
2013-11-12 05:25:00,45.1,37.0,29.95,WNW,292,0.0,-999.0,73,-99.99,,,0.00,Acu-Link.com,2013-11-12 10:25:00,
2013-11-12 05:40:00,44.8,37.7,29.95,SE,135,0.0,-999.0,76,-99.99,,,0.00,Acu-Link.com,2013-11-12 10:40:00,
2013-11-12 05:55:00,44.8,37.4,29.95,SW,225,0.0,-999.0,75,-99.99,,,0.00,Acu-Link.com,2013-11-12 10:55:00,
2013-11-12 06:11:00,44.6,37.5,29.96,SW,225,0.0,-999.0,76,-99.99,,,0.00,Acu-Link.com,2013-11-12 11:11:00,
2013-11-12 06:26:00,45.3,37.5,29.96,South,180,0.0,-999.0,74,-99.99,,,0.00,Acu-Link.com,2013-11-12 11:26:00,
2013-11-12 06:41:00,45.3,37.5,29.95,ESE,112,0.0,-999.0,74,-99.99,,,0.00,Acu-Link.com,2013-11-12 11:41:00,
2013-11-12 06:57:00,45.3,38.2,29.96,SSE,157,0.0,-999.0,76,-99.99,,,0.00,Acu-Link.com,2013-11-12 11:57:00,
2013-11-12 07:12:00,45.3,37.9,29.98,WNW,292,0.0,-999.0,75,-99.99,,,0.00,Acu-Link.com,2013-11-12 12:12:00,
2013-11-12 07:27:00,45.7,37.5,29.98,NE,45,0.0,-999.0,73,-99.99,,,0.00,Acu-Link.com,2013-11-12 12:27:00,
2013-11-12 07:42:00,46.0,38.5,29.99,SSE,157,0.0,-999.0,75,-99.99,,,0.00,Acu-Link.com,2013-11-12 12:42:00,
2013-11-12 07:57:00,47.5,37.8,30.01,NW,315,2.2,-999.0,69,-99.99,,,0.00,Acu-Link.com,2013-11-12 12:57:00,
2013-11-12 08:13:00,46.9,39.7,30.02,NW,315,4.7,-999.0,76,-99.99,,,0.00,Acu-Link.com,2013-11-12 13:13:00,
2013-11-12 08:28:00,46.8,39.6,30.05,WSW,247,6.3,-999.0,76,-99.99,,,0.00,Acu-Link.com,2013-11-12 13:28:00,
2013-11-12 08:43:00,43.7,37.0,30.06,ESE,112,3.2,-999.0,77,-99.99,,,0.00,Acu-Link.com,2013-11-12 13:43:00,
2013-11-12 08:58:00,42.3,35.6,30.09,SW,225,4.2,-999.0,77,-99.99,,,0.01,Acu-Link.com,2013-11-12 13:58:00,
2013-11-12 09:13:00,41.2,34.9,30.10,South,180,2.2,-999.0,78,-99.99,,,0.01,Acu-Link.com,2013-11-12 14:13:00,
2013-11-12 09:29:00,39.9,33.6,30.11,West,270,9.4,-999.0,78,-99.99,,,0.01,Acu-Link.com,2013-11-12 14:29:00,
2013-11-12 09:44:00,39.2,33.2,30.12,East,90,5.8,-999.0,79,-99.99,,,0.01,Acu-Link.com,2013-11-12 14:44:00,
2013-11-12 09:59:00,38.7,33.1,30.13,North,0,11.9,-999.0,80,-99.99,,,0.01,Acu-Link.com,2013-11-12 14:59:00,
2013-11-12 10:14:00,39.2,33.2,30.14,ESE,112,4.7,-999.0,79,-99.99,,,0.01,Acu-Link.com,2013-11-12 15:14:00,
2013-11-12 10:30:00,39.6,33.3,30.14,NE,45,2.7,-999.0,78,-99.99,,,0.01,Acu-Link.com,2013-11-12 15:30:00,
2013-11-12 10:45:00,39.6,32.3,30.14,West,270,1.7,-999.0,75,-99.99,,,0.01,Acu-Link.com,2013-11-12 15:45:00,
2013-11-12 11:00:00,39.9,33.0,30.15,ESE,112,4.7,-999.0,76,-99.99,,,0.01,Acu-Link.com,2013-11-12 16:00:00,
2013-11-12 11:15:00,39.2,32.6,30.15,NW,315,3.7,-999.0,77,-99.99,,,0.01,Acu-Link.com,2013-11-12 16:15:00,
2013-11-12 11:30:00,39.4,33.4,30.15,NNW,337,3.2,-999.0,79,-99.99,,,0.01,Acu-Link.com,2013-11-12 16:30:00,
2013-11-12 11:46:00,36.5,32.1,30.16,WNW,292,4.7,-999.0,84,-99.99,,,0.01,Acu-Link.com,2013-11-12 16:46:00,
2013-11-12 12:01:00,35.4,31.3,30.16,NNE,22,4.7,-999.0,85,-99.99,,,0.01,Acu-Link.com,2013-11-12 17:01:00,
2013-11-12 12:16:00,36.1,29.9,30.16,NNE,22,3.2,-999.0,78,-99.99,,,0.01,Acu-Link.com,2013-11-12 17:16:00,
2013-11-12 12:31:00,37.2,28.3,30.15,NNW,337,5.3,-999.0,70,-99.99,,,0.01,Acu-Link.com,2013-11-12 17:31:00,
2013-11-12 12:46:00,37.6,28.7,30.16,South,180,5.8,-999.0,70,-99.99,,,0.01,Acu-Link.com,2013-11-12 17:46:00,
2013-11-12 13:02:00,37.4,27.1,30.16,NNW,337,7.3,-999.0,66,-99.99,,,0.01,Acu-Link.com,2013-11-12 18:02:00,
2013-11-12 13:17:00,37.9,27.9,30.16,WSW,247,3.7,-999.0,67,-99.99,,,0.01,Acu-Link.com,2013-11-12 18:17:00,
2013-11-12 13:32:00,37.9,27.2,30.17,SE,135,3.7,-999.0,65,-99.99,,,0.01,Acu-Link.com,2013-11-12 18:32:00,
2013-11-12 13:47:00,38.3,25.2,30.18,NNW,337,3.2,-999.0,59,-99.99,,,0.01,Acu-Link.com,2013-11-12 18:47:00,
2013-11-12 14:03:00,38.5,25.8,30.18,West,270,1.1,-999.0,60,-99.99,,,0.01,Acu-Link.com,2013-11-12 19:03:00,
2013-11-12 14:18:00,38.7,25.6,30.18,SSE,157,2.2,-999.0,59,-99.99,,,0.01,Acu-Link.com,2013-11-12 19:18:00,
2013-11-12 14:33:00,38.7,25.2,30.19,WNW,292,1.1,-999.0,58,-99.99,,,0.01,Acu-Link.com,2013-11-12 19:33:00,
2013-11-12 14:48:00,38.5,25.0,30.19,North,0,1.1,-999.0,58,-99.99,,,0.01,Acu-Link.com,2013-11-12 19:48:00,
2013-11-12 15:04:00,38.5,24.2,30.19,SSW,202,2.7,-999.0,56,-99.99,,,0.01,Acu-Link.com,2013-11-12 20:04:00,
2013-11-12 15:19:00,38.3,23.6,30.20,WSW,247,1.1,-999.0,55,-99.99,,,0.01,Acu-Link.com,2013-11-12 20:19:00,
2013-11-12 15:34:00,37.6,21.6,30.20,NNE,22,4.7,-999.0,52,-99.99,,,0.01,Acu-Link.com,2013-11-12 20:34:00,
2013-11-12 15:49:00,37.2,21.7,30.20,NNW,337,0.0,-999.0,53,-99.99,,,0.01,Acu-Link.com,2013-11-12 20:49:00,
2013-11-12 16:04:00,37.0,21.5,30.20,NNE,22,4.2,-999.0,53,-99.99,,,0.01,Acu-Link.com,2013-11-12 21:04:00,
2013-11-12 16:20:00,36.7,21.2,30.20,North,0,3.7,-999.0,53,-99.99,,,0.01,Acu-Link.com,2013-11-12 21:20:00,
2013-11-12 16:35:00,36.5,21.9,30.20,SSE,157,1.1,-999.0,55,-99.99,,,0.01,Acu-Link.com,2013-11-12 21:35:00,
2013-11-12 16:50:00,36.3,21.7,30.21,North,0,1.7,-999.0,55,-99.99,,,0.01,Acu-Link.com,2013-11-12 21:50:00,
2013-11-12 17:05:00,36.1,21.5,30.21,WNW,292,3.7,-999.0,55,-99.99,,,0.01,Acu-Link.com,2013-11-12 22:05:00,
2013-11-12 17:21:00,36.0,21.4,30.21,NNW,337,3.2,-999.0,55,-99.99,,,0.01,Acu-Link.com,2013-11-12 22:21:00,
2013-11-12 17:36:00,35.6,20.2,30.22,NNW,337,5.3,-999.0,53,-99.99,,,0.01,Acu-Link.com,2013-11-12 22:36:00,
2013-11-12 17:51:00,35.6,20.2,30.22,WNW,292,5.8,-999.0,53,-99.99,,,0.01,Acu-Link.com,2013-11-12 22:51:00,
2013-11-12 18:06:00,35.4,20.0,30.23,NNE,22,3.2,-999.0,53,-99.99,,,0.01,Acu-Link.com,2013-11-12 23:06:00,
2013-11-12 18:21:00,35.4,20.0,30.24,South,180,1.1,-999.0,53,-99.99,,,0.01,Acu-Link.com,2013-11-12 23:21:00,
2013-11-12 18:37:00,35.4,20.4,30.24,SSW,202,1.1,-999.0,54,-99.99,,,0.01,Acu-Link.com,2013-11-12 23:37:00,
2013-11-12 18:52:00,35.4,20.9,30.25,NNW,337,1.7,-999.0,55,-99.99,,,0.01,Acu-Link.com,2013-11-12 23:52:00,
2013-11-12 19:07:00,35.2,20.7,30.26,NNE,22,2.7,-999.0,55,-99.99,,,0.01,Acu-Link.com,2013-11-13 00:07:00,
2013-11-12 19:22:00,35.2,20.7,30.25,ENE,67,5.8,-999.0,55,-99.99,,,0.01,Acu-Link.com,2013-11-13 00:22:00,
2013-11-12 19:37:00,35.2,20.7,30.26,ESE,112,2.7,-999.0,55,-99.99,,,0.01,Acu-Link.com,2013-11-13 00:37:00,
2013-11-12 19:53:00,35.1,21.0,30.26,SE,135,3.7,-999.0,56,-99.99,,,0.01,Acu-Link.com,2013-11-13 00:53:00,
2013-11-12 20:08:00,35.1,21.0,30.26,WNW,292,8.9,-999.0,56,-99.99,,,0.01,Acu-Link.com,2013-11-13 01:08:00,
2013-11-12 20:23:00,35.1,21.0,30.27,SW,225,3.7,-999.0,56,-99.99,,,0.01,Acu-Link.com,2013-11-13 01:23:00,
2013-11-12 20:38:00,35.2,20.2,30.28,NNW,337,4.2,-999.0,54,-99.99,,,0.01,Acu-Link.com,2013-11-13 01:38:00,
2013-11-12 20:53:00,35.2,20.2,30.27,SSE,157,0.0,-999.0,54,-99.99,,,0.01,Acu-Link.com,2013-11-13 01:53:00,
2013-11-12 21:09:00,35.2,19.4,30.28,NW,315,1.7,-999.0,52,-99.99,,,0.01,Acu-Link.com,2013-11-13 02:09:00,
2013-11-12 21:24:00,35.2,19.8,30.28,NW,315,2.7,-999.0,53,-99.99,,,0.01,Acu-Link.com,2013-11-13 02:24:00,
2013-11-12 21:39:00,35.2,18.9,30.29,NNW,337,2.2,-999.0,51,-99.99,,,0.01,Acu-Link.com,2013-11-13 02:39:00,
2013-11-12 21:54:00,35.1,18.4,30.29,NNW,337,2.7,-999.0,50,-99.99,,,0.01,Acu-Link.com,2013-11-13 02:54:00,
2013-11-12 22:10:00,34.9,18.6,30.29,NE,45,1.1,-999.0,51,-99.99,,,0.01,Acu-Link.com,2013-11-13 03:10:00,
2013-11-12 22:25:00,34.5,18.3,30.30,West,270,3.7,-999.0,51,-99.99,,,0.01,Acu-Link.com,2013-11-13 03:25:00,
2013-11-12 22:40:00,34.5,17.8,30.30,North,0,5.3,-999.0,50,-99.99,,,0.01,Acu-Link.com,2013-11-13 03:40:00,
2013-11-12 22:55:00,33.8,18.1,30.31,East,90,6.8,-999.0,52,-99.99,,,0.01,Acu-Link.com,2013-11-13 03:55:00,
2013-11-12 23:10:00,32.9,18.1,30.31,East,90,0.0,-999.0,54,-99.99,,,0.01,Acu-Link.com,2013-11-13 04:10:00,
2013-11-12 23:26:00,32.0,17.3,30.31,West,270,0.0,-999.0,54,-99.99,,,0.01,Acu-Link.com,2013-11-13 04:26:00,
2013-11-12 23:41:00,31.1,17.7,30.32,NNE,22,0.0,-999.0,57,-99.99,,,0.01,Acu-Link.com,2013-11-13 04:41:00,
2013-11-12 23:56:00,29.5,17.7,30.32,SSE,157,0.0,-999.0,61,-99.99,,,0.01,Acu-Link.com,2013-11-13 04:56:00,